Time;durP1;ratioP1;P1;durP2;ratioP2;P2;SDS_P1;SDS_P2;PMS_P1;PMS_P2;Temp;Humidity;BMP_temperature;BMP_pressure;BME280_temperature;BME280_humidity;BME280_pressure;Samples;Min_cycle;Max_cycle;Signal;HPM_P1;HPM_P2
2022/01/23 00:00:51;;;;;;;2.03;1.83;;;;;;;;;;5012291;28;20227;-87
2022/01/23 00:03:19;;;;;;;1.60;1.50;;;;;;;;;;5012431;28;20230;-87
2022/01/23 00:05:51;;;;;;;2.72;1.50;;;;;;;;;;5012721;28;20203;-87
2022/01/23 00:08:21;;;;;;;2.70;1.95;;;;;;;;;;5012261;28;20568;-88
2022/01/23 00:10:50;;;;;;;2.45;1.50;;;;;;;;;;5012502;28;20219;-88
2022/01/23 00:13:26;;;;;;;1.73;1.60;;;;;;;;;;5012118;28;20620;-88
2022/01/23 00:18:39;;;;;;;1.50;1.40;;;;;;;;;;5012312;28;20746;-87
2022/01/23 00:21:08;;;;;;;1.88;1.40;;;;;;;;;;5011837;28;20674;-87
2022/01/23 00:30:19;;;;;;;2.47;1.63;;;;;;;;;;5011968;28;20199;-88
2022/01/23 00:32:05;;;;;;;1.30;1.20;;;;;;;;;;5006801;28;20586;-88
2022/01/23 00:34:33;;;;;;;2.00;1.90;;;;;;;;;;5015375;28;20207;-87
2022/01/23 00:37:01;;;;;;;2.58;2.05;;;;;;;;;;5015578;28;20213;-88
2022/01/23 00:39:29;;;;;;;2.00;1.90;;;;;;;;;;5015075;28;20227;-87
2022/01/23 00:41:56;;;;;;;1.48;1.38;;;;;;;;;;5015356;28;20227;-88
2022/01/23 00:44:23;;;;;;;1.20;1.20;;;;;;;;;;5015003;28;20290;-87
2022/01/23 00:46:51;;;;;;;1.90;1.80;;;;;;;;;;5015378;28;20199;-87
2022/01/23 00:49:27;;;;;;;1.70;1.60;;;;;;;;;;5015364;28;20230;-87
2022/01/23 00:51:55;;;;;;;1.90;1.80;;;;;;;;;;5014672;28;20215;-87
2022/01/23 00:54:25;;;;;;;3.38;1.77;;;;;;;;;;5015442;28;20207;-85
2022/01/23 00:56:52;;;;;;;2.30;2.10;;;;;;;;;;5014944;28;20199;-88
2022/01/23 00:59:20;;;;;;;1.90;1.80;;;;;;;;;;5015012;28;20223;-87
2022/01/23 01:01:47;;;;;;;1.80;1.70;;;;;;;;;;5015015;28;20230;-88
2022/01/23 01:04:14;;;;;;;1.90;1.80;;;;;;;;;;5015253;28;20199;-87
2022/01/23 01:06:42;;;;;;;2.95;2.28;;;;;;;;;;5014970;28;20656;-87
2022/01/23 01:09:12;;;;;;;2.80;2.40;;;;;;;;;;5015162;28;20234;-87
2022/01/23 01:11:57;;;;;;;2.15;2.05;;;;;;;;;;5014922;28;20238;-87
2022/01/23 01:14:34;;;;;;;2.70;2.50;;;;;;;;;;5014993;28;20245;-88
2022/01/23 01:17:09;;;;;;;2.25;2.05;;;;;;;;;;5015194;28;20188;-88
2022/01/23 01:30:47;;;;;;;2.67;2.47;;;;;;;;;;5014543;28;20225;-87
2022/01/23 01:33:23;;;;;;;2.40;1.95;;;;;;;;;;5014487;28;20209;-86
2022/01/23 01:35:59;;;;;;;2.33;2.13;;;;;;;;;;5014600;28;20206;-86
2022/01/23 01:38:27;;;;;;;1.88;1.77;;;;;;;;;;5014673;28;20301;-86
2022/01/23 01:40:55;;;;;;;3.40;2.50;;;;;;;;;;5014650;28;20227;-86
2022/01/23 01:43:23;;;;;;;3.40;2.30;;;;;;;;;;5014117;28;20222;-87
2022/01/23 01:45:51;;;;;;;2.10;2.00;;;;;;;;;;5013493;28;20257;-88
2022/01/23 01:48:23;;;;;;;2.33;2.10;;;;;;;;;;5014638;28;20210;-86
2022/01/23 01:50:53;;;;;;;2.53;2.00;;;;;;;;;;5014299;28;20230;-87
2022/01/23 01:53:21;;;;;;;2.00;1.88;;;;;;;;;;5014859;28;20206;-86
2022/01/23 01:55:54;;;;;;;3.75;2.28;;;;;;;;;;5014147;28;20230;-88
2022/01/23 01:58:55;;;;;;;1.90;1.80;;;;;;;;;;5014024;28;20207;-87
2022/01/23 02:09:37;;;;;;;1.50;1.40;;;;;;;;;;5014061;28;20221;-87
2022/01/23 02:12:24;;;;;;;1.90;1.80;;;;;;;;;;5013691;28;20199;-88
2022/01/23 02:15:14;;;;;;;3.53;2.17;;;;;;;;;;5014013;28;20660;-87
2022/01/23 02:17:56;;;;;;;4.63;2.33;;;;;;;;;;5014119;28;20253;-87
2022/01/23 02:23:27;;;;;;;1.40;1.30;;;;;;;;;;5015588;28;20312;-86
2022/01/23 02:50:56;;;;;;;3.83;3.28;;;;;;;;;;5014295;28;20233;-86
2022/01/23 02:53:53;;;;;;;3.85;2.80;;;;;;;;;;5014336;28;20180;-85
2022/01/23 02:56:32;;;;;;;3.63;2.85;;;;;;;;;;5013699;28;20210;-86
2022/01/23 02:59:00;;;;;;;3.38;3.03;;;;;;;;;;5014683;28;20644;-86
2022/01/23 03:01:31;;;;;;;2.67;2.47;;;;;;;;;;5014946;28;20226;-86
2022/01/23 03:04:02;;;;;;;2.63;2.47;;;;;;;;;;5014713;28;20280;-86
2022/01/23 03:06:53;;;;;;;3.60;3.30;;;;;;;;;;5015044;28;20328;-86
2022/01/23 03:14:55;;;;;;;3.10;2.80;;;;;;;;;;5014982;28;20203;-86
2022/01/23 03:26:12;;;;;;;3.78;2.75;;;;;;;;;;4972319;28;20204;-86
2022/01/23 03:29:01;;;;;;;2.40;2.20;;;;;;;;;;5009421;28;20203;-85
2022/01/23 03:31:30;;;;;;;2.65;2.45;;;;;;;;;;5013494;28;20214;-86
2022/01/23 03:33:58;;;;;;;2.55;2.35;;;;;;;;;;5014464;28;20183;-87
2022/01/23 03:36:25;;;;;;;2.63;2.42;;;;;;;;;;5012947;28;20199;-87
2022/01/23 03:38:52;;;;;;;3.03;2.17;;;;;;;;;;5013496;28;20293;-87
2022/01/23 03:41:21;;;;;;;3.10;2.80;;;;;;;;;;5013377;28;20568;-86
2022/01/23 03:43:48;;;;;;;2.28;2.08;;;;;;;;;;5012592;28;20710;-86
2022/01/23 03:46:46;;;;;;;3.05;2.85;;;;;;;;;;5013889;28;20337;-86
2022/01/23 03:49:33;;;;;;;2.25;2.15;;;;;;;;;;5013774;28;20219;-86
2022/01/23 03:52:02;;;;;;;2.70;2.50;;;;;;;;;;5014504;28;20206;-86
2022/01/23 03:54:30;;;;;;;5.07;2.80;;;;;;;;;;5014517;28;20199;-86
2022/01/23 03:57:01;;;;;;;3.60;2.40;;;;;;;;;;5014036;28;20210;-86
2022/01/23 03:59:29;;;;;;;4.20;2.70;;;;;;;;;;5014522;28;20237;-86
2022/01/23 04:01:56;;;;;;;2.83;2.50;;;;;;;;;;5014382;28;20582;-86
2022/01/23 04:04:37;;;;;;;3.10;2.55;;;;;;;;;;5014314;28;20588;-86
2022/01/23 04:07:07;;;;;;;2.60;2.40;;;;;;;;;;5015092;28;20192;-86
2022/01/23 04:09:34;;;;;;;2.63;2.33;;;;;;;;;;5017984;28;20223;-86
2022/01/23 04:12:05;;;;;;;1.70;1.60;;;;;;;;;;5018763;28;20205;-86
2022/01/23 04:14:34;;;;;;;1.80;1.70;;;;;;;;;;5018802;28;20238;-86
2022/01/23 04:17:30;;;;;;;2.67;1.90;;;;;;;;;;5019070;28;20706;-85
2022/01/23 04:20:03;;;;;;;1.40;1.30;;;;;;;;;;5019773;28;20321;-86
2022/01/23 04:33:46;;;;;;;1.52;1.42;;;;;;;;;;5004412;28;20214;-86
2022/01/23 04:48:23;;;;;;;1.58;1.48;;;;;;;;;;5019564;28;20186;-85
2022/01/23 05:01:36;;;;;;;3.08;2.80;;;;;;;;;;5018925;28;20269;-85
2022/01/23 05:04:13;;;;;;;2.63;2.42;;;;;;;;;;5018982;28;20211;-86
2022/01/23 05:06:46;;;;;;;3.33;3.10;;;;;;;;;;5017083;28;20226;-87
2022/01/23 05:09:15;;;;;;;2.88;2.67;;;;;;;;;;5015967;28;20231;-86
2022/01/23 05:11:49;;;;;;;3.78;3.10;;;;;;;;;;5016100;28;20206;-86
2022/01/23 05:14:21;;;;;;;3.45;3.03;;;;;;;;;;5017832;28;20607;-87
2022/01/23 05:16:49;;;;;;;4.25;2.95;;;;;;;;;;5017622;28;20198;-85
2022/01/23 05:19:16;;;;;;;3.53;3.20;;;;;;;;;;5015871;28;20223;-86
2022/01/23 05:24:34;;;;;;;2.92;2.72;;;;;;;;;;5017696;28;20214;-86
2022/01/23 05:27:02;;;;;;;3.67;2.88;;;;;;;;;;5017903;28;20286;-86
2022/01/23 05:29:30;;;;;;;3.20;2.90;;;;;;;;;;5017359;28;20215;-86
2022/01/23 05:31:58;;;;;;;2.40;2.20;;;;;;;;;;5017851;28;20207;-86
2022/01/23 05:34:26;;;;;;;3.03;2.78;;;;;;;;;;5017624;28;20203;-85
2022/01/23 05:36:54;;;;;;;3.67;2.63;;;;;;;;;;5018731;28;20290;-85
2022/01/23 05:39:32;;;;;;;2.30;2.10;;;;;;;;;;5019124;28;20223;-87
2022/01/23 05:42:06;;;;;;;4.25;2.47;;;;;;;;;;5018516;28;20850;-86
2022/01/23 05:44:33;;;;;;;4.00;3.00;;;;;;;;;;5017657;28;20257;-86
2022/01/23 05:47:02;;;;;;;2.20;2.00;;;;;;;;;;5017642;28;20658;-86
2022/01/23 05:49:29;;;;;;;2.70;2.50;;;;;;;;;;5015519;28;20230;-86
2022/01/23 05:51:57;;;;;;;3.10;2.90;;;;;;;;;;5017271;28;20222;-86
2022/01/23 05:54:24;;;;;;;3.28;2.97;;;;;;;;;;5016824;28;20194;-86
2022/01/23 05:56:52;;;;;;;2.80;2.60;;;;;;;;;;5016432;28;20206;-86
2022/01/23 05:59:21;;;;;;;2.88;2.58;;;;;;;;;;5017068;28;20708;-85
2022/01/23 06:01:51;;;;;;;2.92;2.63;;;;;;;;;;5018441;28;20226;-86
2022/01/23 06:04:39;;;;;;;3.80;2.75;;;;;;;;;;5015295;28;20258;-90
2022/01/23 06:07:07;;;;;;;2.55;2.35;;;;;;;;;;5014809;28;20553;-88
2022/01/23 06:09:36;;;;;;;3.33;2.55;;;;;;;;;;5014996;28;20564;-88
2022/01/23 06:12:05;;;;;;;3.92;2.80;;;;;;;;;;5014894;28;20230;-87
2022/01/23 06:14:32;;;;;;;2.65;2.42;;;;;;;;;;5014715;28;20195;-89
2022/01/23 06:16:59;;;;;;;3.58;3.28;;;;;;;;;;5015450;28;20206;-88
2022/01/23 06:19:27;;;;;;;3.05;2.85;;;;;;;;;;5015182;28;20242;-88
2022/01/23 06:21:55;;;;;;;4.18;3.78;;;;;;;;;;5014938;28;20246;-88
2022/01/23 06:24:25;;;;;;;2.80;2.60;;;;;;;;;;5015379;28;20226;-88
2022/01/23 06:26:55;;;;;;;2.70;2.50;;;;;;;;;;5015065;28;20203;-88
2022/01/23 06:29:25;;;;;;;3.13;2.83;;;;;;;;;;5015656;28;20226;-88
2022/01/23 06:31:55;;;;;;;2.72;2.53;;;;;;;;;;5015845;28;20206;-87
2022/01/23 06:34:25;;;;;;;2.20;2.10;;;;;;;;;;5017306;28;20207;-88
2022/01/23 06:36:54;;;;;;;2.83;2.63;;;;;;;;;;5015860;28;20203;-88
2022/01/23 06:39:23;;;;;;;2.70;2.50;;;;;;;;;;5015626;28;20218;-88
2022/01/23 06:41:51;;;;;;;3.15;2.85;;;;;;;;;;5014808;28;20395;-88
2022/01/23 06:44:26;;;;;;;3.63;3.20;;;;;;;;;;5014939;28;20245;-88
2022/01/23 06:46:53;;;;;;;2.75;2.55;;;;;;;;;;5016126;28;20694;-88
2022/01/23 06:49:20;;;;;;;3.15;2.80;;;;;;;;;;5015096;28;20223;-88
2022/01/23 06:51:49;;;;;;;2.72;2.53;;;;;;;;;;5015309;28;20215;-88
2022/01/23 06:54:18;;;;;;;2.83;2.58;;;;;;;;;;5015722;28;20715;-88
2022/01/23 06:56:45;;;;;;;2.90;2.70;;;;;;;;;;5015773;28;20203;-88
2022/01/23 06:59:13;;;;;;;2.88;2.65;;;;;;;;;;5015772;28;20230;-88
2022/01/23 07:01:40;;;;;;;3.20;2.80;;;;;;;;;;5015321;28;20210;-88
2022/01/23 07:04:08;;;;;;;3.17;2.95;;;;;;;;;;5017831;28;20226;-88
2022/01/23 07:06:35;;;;;;;3.17;2.88;;;;;;;;;;5017509;28;20207;-88
2022/01/23 07:09:02;;;;;;;2.72;2.53;;;;;;;;;;5016916;28;20552;-88
2022/01/23 07:11:31;;;;;;;3.40;3.10;;;;;;;;;;5015723;28;20687;-88
2022/01/23 07:14:04;;;;;;;3.25;2.95;;;;;;;;;;5016556;28;20203;-88
2022/01/23 07:16:32;;;;;;;2.83;2.58;;;;;;;;;;5016708;28;20711;-88
2022/01/23 07:18:59;;;;;;;2.92;2.72;;;;;;;;;;5016226;28;20207;-88
2022/01/23 07:21:26;;;;;;;3.65;3.35;;;;;;;;;;5018088;28;20209;-88
2022/01/23 07:23:54;;;;;;;3.60;3.30;;;;;;;;;;5016158;28;20687;-87
2022/01/23 07:26:23;;;;;;;3.88;3.58;;;;;;;;;;5014868;28;20219;-86
2022/01/23 07:28:54;;;;;;;3.75;3.45;;;;;;;;;;5014140;28;20214;-87
2022/01/23 07:31:42;;;;;;;4.15;3.75;;;;;;;;;;5013830;28;20186;-87
2022/01/23 07:34:12;;;;;;;3.97;3.55;;;;;;;;;;5013476;28;20206;-87
2022/01/23 07:36:40;;;;;;;3.95;3.33;;;;;;;;;;5013153;28;20202;-87
2022/01/23 07:39:08;;;;;;;3.78;3.47;;;;;;;;;;5013166;28;20203;-87
2022/01/23 07:41:35;;;;;;;3.13;2.92;;;;;;;;;;5013523;28;20261;-86
2022/01/23 07:44:05;;;;;;;3.35;3.00;;;;;;;;;;5012805;28;20210;-89
2022/01/23 07:46:32;;;;;;;3.30;3.10;;;;;;;;;;5012746;28;20229;-87
2022/01/23 07:48:59;;;;;;;2.75;2.55;;;;;;;;;;5013134;28;20206;-87
2022/01/23 07:51:27;;;;;;;3.40;3.10;;;;;;;;;;5013110;28;20290;-87
2022/01/23 07:53:54;;;;;;;3.55;3.25;;;;;;;;;;5013194;28;20206;-88
2022/01/23 07:56:22;;;;;;;2.33;2.17;;;;;;;;;;5013457;28;20590;-88
2022/01/23 07:58:49;;;;;;;2.42;2.22;;;;;;;;;;5013139;28;20195;-88
2022/01/23 08:01:18;;;;;;;3.47;2.92;;;;;;;;;;5013287;28;20656;-86
2022/01/23 08:03:45;;;;;;;2.25;2.10;;;;;;;;;;5013178;28;20218;-87
2022/01/23 08:06:13;;;;;;;2.10;2.00;;;;;;;;;;5013050;28;20626;-87
2022/01/23 08:08:40;;;;;;;2.45;2.25;;;;;;;;;;5013093;28;20211;-88
2022/01/23 08:11:08;;;;;;;2.95;2.75;;;;;;;;;;5013191;28;20742;-86
2022/01/23 08:13:36;;;;;;;2.28;2.10;;;;;;;;;;5013220;28;20214;-87
2022/01/23 08:16:04;;;;;;;2.33;2.10;;;;;;;;;;5013068;28;20199;-87
2022/01/23 08:18:32;;;;;;;1.92;1.83;;;;;;;;;;5013079;28;20214;-87
2022/01/23 08:21:00;;;;;;;2.45;2.25;;;;;;;;;;5012824;28;20227;-87
2022/01/23 08:23:27;;;;;;;2.10;2.00;;;;;;;;;;5012855;28;20199;-86
2022/01/23 08:25:54;;;;;;;2.30;2.10;;;;;;;;;;5012827;28;20237;-87
2022/01/23 08:28:22;;;;;;;3.28;2.40;;;;;;;;;;5013528;28;20199;-86
2022/01/23 08:30:49;;;;;;;2.08;1.92;;;;;;;;;;5012473;28;20230;-87
2022/01/23 08:33:16;;;;;;;2.45;2.25;;;;;;;;;;5012380;28;20203;-87
2022/01/23 08:35:45;;;;;;;2.70;2.50;;;;;;;;;;5011990;28;20199;-87
2022/01/23 08:38:14;;;;;;;1.70;1.60;;;;;;;;;;5012378;28;20203;-86
2022/01/23 08:41:49;;;;;;;2.10;2.00;;;;;;;;;;5012394;28;20226;-87
2022/01/23 08:43:36;;;;;;;2.33;2.13;;;;;;;;;;5011938;28;20206;-88
2022/01/23 08:46:04;;;;;;;2.10;1.98;;;;;;;;;;5012046;28;20223;-88
2022/01/23 08:48:32;;;;;;;2.03;1.85;;;;;;;;;;5012268;28;20581;-88
2022/01/23 08:51:00;;;;;;;1.85;1.75;;;;;;;;;;5011659;28;20235;-88
2022/01/23 08:53:28;;;;;;;2.10;2.00;;;;;;;;;;5012148;28;20210;-88
2022/01/23 08:55:55;;;;;;;3.40;2.00;;;;;;;;;;5013703;28;20199;-87
2022/01/23 08:58:22;;;;;;;2.17;1.98;;;;;;;;;;5015477;28;20210;-88
2022/01/23 09:00:50;;;;;;;1.85;1.75;;;;;;;;;;5015118;28;20219;-86
2022/01/23 09:03:17;;;;;;;1.80;1.70;;;;;;;;;;5015486;28;20206;-87
2022/01/23 09:05:44;;;;;;;2.58;1.75;;;;;;;;;;5014753;28;20711;-88
2022/01/23 09:08:14;;;;;;;1.60;1.50;;;;;;;;;;5015310;28;20215;-89
2022/01/23 09:10:52;;;;;;;1.60;1.50;;;;;;;;;;5015256;28;20249;-89
2022/01/23 09:13:31;;;;;;;2.03;1.90;;;;;;;;;;5015366;28;20187;-88
2022/01/23 09:15:58;;;;;;;1.70;1.42;;;;;;;;;;5015558;28;20215;-88
2022/01/23 09:18:26;;;;;;;1.50;1.40;;;;;;;;;;5015105;28;20589;-87
2022/01/23 09:20:53;;;;;;;1.88;1.77;;;;;;;;;;5014712;28;20704;-88
2022/01/23 09:23:22;;;;;;;2.15;2.05;;;;;;;;;;5014956;28;20203;-87
2022/01/23 09:25:49;;;;;;;1.65;1.55;;;;;;;;;;5014880;28;20219;-88
2022/01/23 09:28:19;;;;;;;1.75;1.65;;;;;;;;;;5013824;28;20203;-87
2022/01/23 09:30:51;;;;;;;1.25;1.20;;;;;;;;;;5014480;28;20229;-88
2022/01/23 09:33:19;;;;;;;2.15;1.95;;;;;;;;;;5015076;28;20203;-88
2022/01/23 09:35:46;;;;;;;2.45;2.25;;;;;;;;;;5015060;28;20195;-88
2022/01/23 09:38:13;;;;;;;1.30;1.20;;;;;;;;;;5014941;28;20203;-87
2022/01/23 09:40:44;;;;;;;1.42;1.33;;;;;;;;;;5014885;28;20234;-88
2022/01/23 09:43:18;;;;;;;2.05;1.88;;;;;;;;;;5014819;28;20234;-88
2022/01/23 09:45:48;;;;;;;1.40;1.30;;;;;;;;;;5014679;28;20730;-87
2022/01/23 09:48:18;;;;;;;1.55;1.45;;;;;;;;;;5015221;28;20230;-87
2022/01/23 09:50:48;;;;;;;1.40;1.30;;;;;;;;;;5014952;28;20227;-88
2022/01/23 09:53:17;;;;;;;1.38;1.23;;;;;;;;;;5014918;28;20204;-88
2022/01/23 09:55:49;;;;;;;1.60;1.50;;;;;;;;;;5014942;28;20202;-87
2022/01/23 09:58:16;;;;;;;1.52;1.42;;;;;;;;;;5014248;28;20207;-88
2022/01/23 10:00:44;;;;;;;1.70;1.52;;;;;;;;;;5014279;28;20223;-87
2022/01/23 10:03:11;;;;;;;1.85;1.50;;;;;;;;;;5036550;23;20220;-85
2022/01/23 10:05:39;;;;;;;1.73;1.63;;;;;;;;;;5073551;28;20661;-85
2022/01/23 10:08:08;;;;;;;1.92;1.83;;;;;;;;;;5074086;28;20598;-86
2022/01/23 10:10:39;;;;;;;4.20;3.83;;;;;;;;;;5074198;28;20209;-87
2022/01/23 10:13:08;;;;;;;3.60;3.30;;;;;;;;;;5054040;28;20233;-86
2022/01/23 10:15:37;;;;;;;2.90;2.60;;;;;;;;;;5054541;28;20648;-87
2022/01/23 10:18:05;;;;;;;1.90;1.80;;;;;;;;;;5053657;28;20208;-86
2022/01/23 10:20:32;;;;;;;1.88;1.77;;;;;;;;;;5053772;28;20202;-86
2022/01/23 10:23:00;;;;;;;2.15;2.00;;;;;;;;;;5053622;28;20221;-86
2022/01/23 10:25:30;;;;;;;1.70;1.60;;;;;;;;;;5053697;28;20705;-87
2022/01/23 10:28:04;;;;;;;1.70;1.60;;;;;;;;;;5054170;28;20225;-85
2022/01/23 10:30:37;;;;;;;1.50;1.40;;;;;;;;;;5054263;28;20205;-86
2022/01/23 10:33:15;;;;;;;2.50;1.25;;;;;;;;;;5054850;28;20225;-86
2022/01/23 10:36:25;;;;;;;1.70;1.60;;;;;;;;;;5054331;28;20201;-85
2022/01/23 10:38:57;;;;;;;1.05;1.05;;;;;;;;;;5024344;28;20201;-86
2022/01/23 10:41:43;;;;;;;1.27;1.10;;;;;;;;;;5054663;28;20670;-84
2022/01/23 10:47:34;;;;;;;1.63;1.58;;;;;;;;;;5053450;28;20224;-85
2022/01/23 10:50:04;;;;;;;1.60;1.50;;;;;;;;;;5053111;28;20205;-85
2022/01/23 10:52:35;;;;;;;1.80;1.70;;;;;;;;;;5052921;28;20304;-84
2022/01/23 10:55:05;;;;;;;1.35;1.25;;;;;;;;;;5053958;28;20330;-84
2022/01/23 10:57:37;;;;;;;1.90;1.65;;;;;;;;;;5053628;28;20232;-84
2022/01/23 11:00:07;;;;;;;1.70;1.60;;;;;;;;;;5053128;28;20619;-84
2022/01/23 11:02:40;;;;;;;1.75;1.65;;;;;;;;;;5056317;28;20669;-85
2022/01/23 11:05:10;;;;;;;2.20;2.00;;;;;;;;;;5055221;28;20201;-84
2022/01/23 11:07:45;;;;;;;1.40;1.30;;;;;;;;;;5052917;28;20217;-84
2022/01/23 11:10:15;;;;;;;1.58;1.48;;;;;;;;;;5052875;28;20201;-85
2022/01/23 11:18:38;;;;;;;2.08;1.83;;;;;;;;;;5052862;28;20578;-84
2022/01/23 11:21:18;;;;;;;1.15;1.15;;;;;;;;;;5053489;28;20228;-85
2022/01/23 11:23:54;;;;;;;1.60;1.50;;;;;;;;;;5052844;28;20205;-85
2022/01/23 11:26:22;;;;;;;2.67;1.85;;;;;;;;;;5052798;28;20654;-84
2022/01/23 11:28:49;;;;;;;1.88;1.77;;;;;;;;;;5058251;28;20198;-85
2022/01/23 11:31:19;;;;;;;1.88;1.38;;;;;;;;;;5052587;28;20225;-84
2022/01/23 11:33:50;;;;;;;1.25;1.25;;;;;;;;;;5052640;28;20209;-86
2022/01/23 11:36:18;;;;;;;0.90;0.90;;;;;;;;;;5053249;28;20205;-84
2022/01/23 11:38:48;;;;;;;0.80;0.80;;;;;;;;;;5052040;28;20202;-85
2022/01/23 11:55:30;;;;;;;2.67;1.25;;;;;;;;;;5052275;28;20204;-84
2022/01/23 11:57:58;;;;;;;1.20;1.10;;;;;;;;;;5052329;28;20194;-84
2022/01/23 12:00:29;;;;;;;1.00;0.90;;;;;;;;;;5052557;28;20209;-84
2022/01/23 12:03:20;;;;;;;1.02;1.00;;;;;;;;;;5051924;28;20233;-89
2022/01/23 12:05:50;;;;;;;1.10;1.10;;;;;;;;;;5051985;28;20294;-85
2022/01/23 12:08:22;;;;;;;1.25;1.15;;;;;;;;;;5052146;28;20228;-85
2022/01/23 12:11:34;;;;;;;1.20;1.20;;;;;;;;;;5051994;28;20636;-84
2022/01/23 12:17:11;;;;;;;0.98;0.98;;;;;;;;;;5052381;28;20668;-85
2022/01/23 12:19:55;;;;;;;1.15;1.15;;;;;;;;;;5051712;28;20193;-84
2022/01/23 12:22:36;;;;;;;1.10;1.10;;;;;;;;;;5051307;28;20229;-85
2022/01/23 12:25:25;;;;;;;1.80;1.70;;;;;;;;;;5051553;28;20732;-84
2022/01/23 12:28:21;;;;;;;1.10;1.10;;;;;;;;;;5049896;28;20272;-85
2022/01/23 12:30:51;;;;;;;1.60;1.50;;;;;;;;;;5055488;28;20673;-84
2022/01/23 12:33:31;;;;;;;1.42;1.33;;;;;;;;;;5055237;28;20208;-84
2022/01/23 12:36:04;;;;;;;1.13;1.13;;;;;;;;;;5055712;28;20220;-85
2022/01/23 12:38:38;;;;;;;1.83;1.40;;;;;;;;;;5055828;28;20201;-84
2022/01/23 12:41:28;;;;;;;1.38;1.27;;;;;;;;;;5055135;28;20271;-85
2022/01/23 12:43:59;;;;;;;1.10;1.00;;;;;;;;;;5055069;28;20680;-84
2022/01/23 12:46:34;;;;;;;1.23;1.20;;;;;;;;;;5055614;28;20213;-84
2022/01/23 12:49:18;;;;;;;1.13;1.10;;;;;;;;;;5056629;28;20304;-85
2022/01/23 12:51:47;;;;;;;0.90;0.90;;;;;;;;;;5055076;28;20221;-85
2022/01/23 12:54:25;;;;;;;0.77;0.77;;;;;;;;;;5054164;28;20303;-85
2022/01/23 12:56:55;;;;;;;0.73;0.73;;;;;;;;;;5055484;28;20201;-85
2022/01/23 12:59:32;;;;;;;0.90;0.90;;;;;;;;;;5055226;28;20275;-84
2022/01/23 13:02:04;;;;;;;1.05;1.05;;;;;;;;;;5054913;28;20228;-84
2022/01/23 13:04:39;;;;;;;0.90;0.90;;;;;;;;;;5055189;28;20255;-85
2022/01/23 13:07:17;;;;;;;1.00;0.90;;;;;;;;;;5055240;28;20296;-85
2022/01/23 13:09:52;;;;;;;1.85;1.15;;;;;;;;;;5055227;28;20715;-85
2022/01/23 13:12:48;;;;;;;1.40;1.30;;;;;;;;;;5054725;28;20260;-84
2022/01/23 13:15:43;;;;;;;1.52;1.08;;;;;;;;;;5055066;28;20206;-85
2022/01/23 13:18:31;;;;;;;0.90;0.90;;;;;;;;;;5055300;28;20202;-85
2022/01/23 13:32:17;;;;;;;1.35;1.25;;;;;;;;;;5054271;28;20228;-85
2022/01/23 13:34:50;;;;;;;0.85;0.85;;;;;;;;;;5056868;28;20198;-85
2022/01/23 13:37:20;;;;;;;1.10;1.05;;;;;;;;;;5057341;28;20293;-85
2022/01/23 13:39:52;;;;;;;1.20;1.10;;;;;;;;;;5054306;28;20201;-84
2022/01/23 13:42:45;;;;;;;1.00;1.00;;;;;;;;;;5059606;28;20229;-85
2022/01/23 13:51:29;;;;;;;1.55;1.45;;;;;;;;;;4973036;28;20738;-85
2022/01/23 13:59:38;;;;;;;1.35;1.25;;;;;;;;;;5055179;28;20200;-85
2022/01/23 14:02:15;;;;;;;1.80;1.50;;;;;;;;;;5053974;28;20218;-86
2022/01/23 14:04:45;;;;;;;2.75;1.70;;;;;;;;;;5053675;28;20236;-86
2022/01/23 14:07:12;;;;;;;1.80;1.70;;;;;;;;;;5053924;28;20205;-85
2022/01/23 14:09:43;;;;;;;1.83;1.65;;;;;;;;;;5053097;28;20225;-86
2022/01/23 14:12:13;;;;;;;2.05;1.95;;;;;;;;;;5053618;28;20275;-85
2022/01/23 14:14:55;;;;;;;2.13;1.48;;;;;;;;;;5053948;28;20244;-86
2022/01/23 14:17:26;;;;;;;1.38;1.30;;;;;;;;;;5053421;28;20201;-86
2022/01/23 14:20:07;;;;;;;1.17;1.08;;;;;;;;;;5053824;28;20197;-85
2022/01/23 14:22:36;;;;;;;1.33;1.25;;;;;;;;;;5053623;28;20233;-86
2022/01/23 14:25:16;;;;;;;1.50;1.40;;;;;;;;;;5053306;28;20208;-85
2022/01/23 14:27:46;;;;;;;1.20;1.20;;;;;;;;;;5053900;28;20588;-85
2022/01/23 14:30:23;;;;;;;1.60;1.48;;;;;;;;;;5053245;28;20232;-84
2022/01/23 14:32:52;;;;;;;1.65;1.55;;;;;;;;;;5052947;28;20227;-85
2022/01/23 14:35:24;;;;;;;1.40;1.40;;;;;;;;;;5053188;28;20297;-85
2022/01/23 14:37:52;;;;;;;1.30;1.20;;;;;;;;;;5053298;28;20206;-84
2022/01/23 14:40:23;;;;;;;1.52;1.42;;;;;;;;;;5053251;28;20206;-85
2022/01/23 14:43:04;;;;;;;3.70;3.33;;;;;;;;;;5053309;28;20225;-87
2022/01/23 14:45:35;;;;;;;3.53;3.22;;;;;;;;;;5053481;28;20583;-87
2022/01/23 14:48:04;;;;;;;2.45;2.25;;;;;;;;;;5052230;28;20201;-87
2022/01/23 14:50:34;;;;;;;2.40;2.03;;;;;;;;;;5053248;28;20209;-87
2022/01/23 14:53:08;;;;;;;3.83;3.38;;;;;;;;;;5052963;28;20272;-87
2022/01/23 14:55:36;;;;;;;10.90;9.80;;;;;;;;;;5052980;28;20197;-87
2022/01/23 14:58:04;;;;;;;9.25;6.78;;;;;;;;;;5052931;28;20216;-86
2022/01/23 15:00:36;;;;;;;6.57;4.82;;;;;;;;;;5053047;28;20193;-87
2022/01/23 15:03:05;;;;;;;3.65;3.33;;;;;;;;;;5052178;28;20233;-87
2022/01/23 15:05:33;;;;;;;2.33;1.85;;;;;;;;;;5052823;28;20216;-87
2022/01/23 15:08:01;;;;;;;1.90;1.50;;;;;;;;;;5052848;28;20202;-86
2022/01/23 15:10:29;;;;;;;1.90;1.75;;;;;;;;;;5052593;28;20260;-87
2022/01/23 15:12:57;;;;;;;1.83;1.27;;;;;;;;;;5052837;28;20225;-87
2022/01/23 15:15:25;;;;;;;1.20;1.08;;;;;;;;;;5052752;28;20220;-87
2022/01/23 15:17:53;;;;;;;0.98;0.98;;;;;;;;;;5052389;28;20204;-87
2022/01/23 15:20:21;;;;;;;2.05;1.33;;;;;;;;;;5052707;28;20582;-87
2022/01/23 15:22:49;;;;;;;1.08;1.08;;;;;;;;;;5052325;28;20225;-87
2022/01/23 15:25:18;;;;;;;1.42;1.35;;;;;;;;;;5052848;28;20211;-87
2022/01/23 15:27:46;;;;;;;1.40;1.30;;;;;;;;;;5052936;28;20460;-88
2022/01/23 15:30:16;;;;;;;1.75;1.58;;;;;;;;;;5053238;28;20222;-86
2022/01/23 15:32:44;;;;;;;1.50;1.40;;;;;;;;;;5051804;28;20217;-87
2022/01/23 15:35:14;;;;;;;3.30;1.75;;;;;;;;;;5053105;28;20196;-87
2022/01/23 15:37:42;;;;;;;1.38;1.27;;;;;;;;;;5032536;28;20202;-88
2022/01/23 15:40:12;;;;;;;1.45;1.30;;;;;;;;;;5032801;28;20220;-87
2022/01/23 15:42:40;;;;;;;2.83;1.45;;;;;;;;;;5033997;28;20221;-87
2022/01/23 15:45:09;;;;;;;1.98;1.80;;;;;;;;;;5034536;28;20205;-86
2022/01/23 15:47:37;;;;;;;3.35;1.80;;;;;;;;;;5032319;28;20205;-86
2022/01/23 15:50:06;;;;;;;1.90;1.80;;;;;;;;;;5032716;28;20218;-87
2022/01/23 15:52:35;;;;;;;1.60;1.50;;;;;;;;;;5032094;28;20222;-87
2022/01/23 15:55:02;;;;;;;1.75;1.65;;;;;;;;;;5033349;28;20212;-86
2022/01/23 15:57:30;;;;;;;1.10;1.10;;;;;;;;;;5032596;28;20206;-87
2022/01/23 15:59:57;;;;;;;1.40;1.30;;;;;;;;;;5032188;28;20203;-87
2022/01/23 16:02:24;;;;;;;1.70;1.60;;;;;;;;;;5048041;28;20244;-86
2022/01/23 16:04:52;;;;;;;1.80;1.70;;;;;;;;;;5053842;28;20225;-87
2022/01/23 16:07:19;;;;;;;1.20;1.20;;;;;;;;;;5056806;28;20247;-85
2022/01/23 16:09:48;;;;;;;1.00;1.00;;;;;;;;;;5055873;28;20221;-87
2022/01/23 16:12:17;;;;;;;1.17;1.15;;;;;;;;;;5055865;28;20209;-87
2022/01/23 16:14:45;;;;;;;1.65;1.55;;;;;;;;;;5055945;28;20573;-87
2022/01/23 16:17:12;;;;;;;1.60;1.50;;;;;;;;;;5055769;28;20197;-87
2022/01/23 16:19:40;;;;;;;1.25;1.20;;;;;;;;;;5055796;28;20194;-87
2022/01/23 16:22:07;;;;;;;1.63;1.52;;;;;;;;;;5055780;28;20233;-87
2022/01/23 16:24:35;;;;;;;1.77;1.67;;;;;;;;;;5055969;28;20201;-86
2022/01/23 16:27:04;;;;;;;1.50;1.33;;;;;;;;;;5056060;28;20209;-87
2022/01/23 16:29:32;;;;;;;1.13;1.13;;;;;;;;;;5055508;28;20233;-87
2022/01/23 16:31:59;;;;;;;1.42;1.15;;;;;;;;;;5055348;28;20257;-87
2022/01/23 16:34:28;;;;;;;2.42;1.23;;;;;;;;;;5056201;28;20233;-87
2022/01/23 16:36:56;;;;;;;1.30;1.20;;;;;;;;;;5056188;28;20193;-87
2022/01/23 16:39:24;;;;;;;1.15;1.15;;;;;;;;;;5056005;28;20202;-87
2022/01/23 16:41:53;;;;;;;2.08;1.70;;;;;;;;;;5055647;28;20786;-87
2022/01/23 16:44:24;;;;;;;1.30;1.20;;;;;;;;;;5055586;28;20201;-87
2022/01/23 16:46:52;;;;;;;1.48;1.38;;;;;;;;;;5055541;28;20205;-87
2022/01/23 16:49:19;;;;;;;2.10;1.88;;;;;;;;;;5056741;28;20194;-87
2022/01/23 16:51:47;;;;;;;2.08;1.77;;;;;;;;;;5059400;28;20234;-86
2022/01/23 16:54:18;;;;;;;1.77;1.65;;;;;;;;;;5059344;28;20584;-86
2022/01/23 16:56:45;;;;;;;2.08;1.88;;;;;;;;;;5056817;28;20194;-87
2022/01/23 16:59:14;;;;;;;2.45;1.88;;;;;;;;;;5056176;28;20201;-87
2022/01/23 17:01:46;;;;;;;1.85;1.75;;;;;;;;;;5055541;28;20225;-87
2022/01/23 17:04:14;;;;;;;4.13;2.63;;;;;;;;;;5055181;28;20216;-87
2022/01/23 17:06:43;;;;;;;1.73;1.63;;;;;;;;;;5054995;28;20206;-87
2022/01/23 17:09:11;;;;;;;2.00;1.90;;;;;;;;;;5055044;28;20232;-85
2022/01/23 17:11:38;;;;;;;2.03;1.83;;;;;;;;;;5055083;28;20648;-87
2022/01/23 17:14:06;;;;;;;1.92;1.70;;;;;;;;;;5055468;28;20209;-87
2022/01/23 17:16:33;;;;;;;3.30;1.48;;;;;;;;;;5053322;28;20201;-87
2022/01/23 17:19:02;;;;;;;3.47;1.85;;;;;;;;;;5054927;28;20194;-88
2022/01/23 17:21:30;;;;;;;1.50;1.40;;;;;;;;;;5054469;28;20618;-88
2022/01/23 17:23:57;;;;;;;1.70;1.60;;;;;;;;;;5055347;28;20201;-88
2022/01/23 17:26:26;;;;;;;1.50;1.40;;;;;;;;;;5054872;28;20202;-87
2022/01/23 17:28:53;;;;;;;1.77;1.50;;;;;;;;;;5054499;28;20225;-87
2022/01/23 17:31:21;;;;;;;2.33;2.13;;;;;;;;;;5054375;28;20252;-87
2022/01/23 17:33:48;;;;;;;1.92;1.60;;;;;;;;;;5054469;28;20197;-87
2022/01/23 17:36:18;;;;;;;1.98;1.85;;;;;;;;;;5057667;28;20206;-87
2022/01/23 17:38:46;;;;;;;3.15;2.00;;;;;;;;;;5060885;28;20289;-86
2022/01/23 17:41:18;;;;;;;1.73;1.63;;;;;;;;;;5058235;28;20248;-87
2022/01/23 17:43:47;;;;;;;2.55;1.83;;;;;;;;;;5056122;28;20201;-88